createdAt,value
2019-05-13T00:00:10.436Z,97.89
2019-05-13T00:01:10.526Z,97.68
2019-05-13T00:02:10.427Z,97.83
2019-05-13T00:03:10.516Z,97.68
2019-05-13T00:04:10.392Z,98.25
2019-05-13T00:05:10.400Z,97.72
2019-05-13T00:06:10.378Z,98.25
2019-05-13T00:07:10.361Z,97.62
2019-05-13T00:08:10.450Z,98.14
2019-05-13T00:09:10.341Z,98.14
2019-05-13T00:10:14.756Z,98.14
2019-05-13T00:11:10.317Z,98.29
2019-05-13T00:12:10.302Z,98.19
2019-05-13T00:13:10.306Z,98.08
2019-05-13T00:14:10.363Z,98.08
2019-05-13T00:15:10.273Z,98.19
2019-05-13T00:16:11.274Z,97.98
2019-05-13T00:17:10.254Z,98.08
2019-05-13T00:18:10.246Z,97.98
2019-05-13T00:19:10.295Z,98.29
2019-05-13T00:20:10.216Z,98.02
2019-05-13T00:21:10.295Z,97.77
2019-05-13T00:22:10.186Z,98.55
2019-05-13T00:23:10.179Z,98.13
2019-05-13T00:24:10.187Z,98.23
2019-05-13T00:25:10.267Z,98.19
2019-05-13T00:26:10.149Z,98.34
2019-05-13T00:27:10.199Z,98.13
2019-05-13T00:28:10.129Z,98.13
2019-05-13T00:29:10.140Z,98.34
2019-05-13T00:30:10.200Z,98.55
2019-05-13T00:31:10.093Z,98.13
2019-05-13T00:32:10.140Z,98.13
2019-05-13T00:33:10.091Z,98.23
2019-05-13T00:34:10.072Z,98.23
2019-05-13T00:35:10.052Z,98.86
2019-05-13T00:36:10.116Z,98.96
2019-05-13T00:37:11.724Z,98.55
2019-05-13T00:38:11.075Z,98.13
2019-05-13T00:39:10.013Z,98.23
2019-05-13T00:40:10.094Z,98.38
2019-05-13T00:41:09.974Z,98.90
2019-05-13T00:42:10.025Z,98.59
2019-05-13T00:43:09.955Z,99.53
2019-05-13T00:44:10.007Z,98.86
2019-05-13T00:45:09.937Z,98.86
2019-05-13T00:46:09.997Z,98.86
2019-05-13T00:47:09.907Z,99.22
2019-05-13T00:48:10.957Z,98.75
2019-05-13T00:49:09.912Z,99.22
2019-05-13T00:50:09.879Z,98.38
2019-05-13T00:51:09.879Z,98.49
2019-05-13T00:52:09.904Z,99.11
2019-05-13T00:53:09.840Z,99.01
2019-05-13T00:54:09.879Z,98.69
2019-05-13T00:55:10.226Z,98.69
2019-05-13T00:56:09.818Z,99.32
2019-05-13T00:57:09.842Z,99.22
2019-05-13T00:58:10.992Z,99.53
2019-05-13T00:59:10.857Z,99.11
2019-05-13T01:00:09.766Z,99.53
2019-05-13T01:01:09.757Z,99.53
2019-05-13T01:02:09.757Z,98.90
2019-05-13T01:03:09.757Z,99.43
2019-05-13T01:04:09.738Z,99.32
2019-05-13T01:05:09.799Z,98.90
2019-05-13T01:06:09.713Z,99.22
2019-05-13T01:07:24.413Z,98.69
2019-05-13T01:08:10.682Z,98.59
2019-05-13T01:09:09.721Z,98.63
2019-05-13T01:10:09.661Z,98.85
2019-05-13T01:11:09.701Z,99.05
2019-05-13T01:12:09.633Z,99.26
2019-05-13T01:13:09.745Z,98.63
2019-05-13T01:14:09.622Z,99.26
2019-05-13T01:15:09.713Z,98.63
2019-05-13T01:16:09.583Z,98.79
2019-05-13T01:17:09.584Z,99.10
2019-05-13T01:18:09.575Z,98.95
2019-05-13T01:19:09.645Z,98.79
2019-05-13T01:20:09.556Z,98.68
2019-05-13T01:21:09.585Z,99.20
2019-05-13T01:22:09.535Z,98.89
2019-05-13T01:23:09.628Z,99.31
2019-05-13T01:24:09.508Z,98.99
2019-05-13T01:25:09.630Z,99.20
2019-05-13T01:26:09.478Z,99.05
2019-05-13T01:27:09.491Z,98.58
2019-05-13T01:28:09.449Z,99.41
2019-05-13T01:29:09.529Z,99.31
2019-05-13T01:30:09.449Z,98.68
2019-05-13T01:31:09.472Z,98.99
2019-05-13T01:32:09.420Z,98.89
2019-05-13T01:33:09.411Z,99.25
2019-05-13T01:34:09.382Z,99.35
2019-05-13T01:35:09.482Z,99.35
2019-05-13T01:36:09.373Z,99.46
2019-05-13T01:37:09.372Z,99.15
2019-05-13T01:38:09.343Z,99.46
2019-05-13T01:39:09.323Z,99.46
2019-05-13T01:40:09.434Z,99.04
2019-05-13T01:41:09.309Z,99.77
2019-05-13T01:42:09.313Z,99.66
2019-05-13T01:43:09.285Z,99.41
2019-05-13T01:44:09.302Z,99.52
2019-05-13T01:45:09.280Z,99.62
2019-05-13T01:46:10.307Z,99.77
2019-05-13T01:47:09.247Z,99.98
2019-05-13T01:48:09.353Z,99.77
2019-05-13T01:49:09.217Z,99.66
2019-05-13T01:50:10.329Z,99.99
2019-05-13T01:51:09.207Z,99.99
2019-05-13T01:52:09.299Z,99.99
2019-05-13T01:53:09.169Z,99.99
2019-05-13T01:54:09.230Z,99.99
2019-05-13T01:55:09.170Z,99.99
2019-05-13T01:56:09.169Z,99.99
2019-05-13T01:57:09.121Z,99.99
2019-05-13T01:58:09.202Z,99.77
2019-05-13T01:59:09.112Z,99.61
2019-05-13T02:00:09.106Z,99.99
2019-05-13T02:01:09.092Z,99.99
2019-05-13T02:02:09.172Z,99.99
2019-05-13T02:03:09.063Z,99.98
2019-05-13T02:04:09.104Z,99.99
2019-05-13T02:05:09.054Z,99.77
2019-05-13T02:06:09.044Z,99.56
2019-05-13T02:07:09.026Z,99.56
2019-05-13T02:08:09.095Z,99.61
2019-05-13T02:09:08.985Z,99.29
2019-05-13T02:10:09.066Z,99.99
2019-05-13T02:11:08.977Z,99.99
2019-05-13T02:12:08.958Z,99.71
2019-05-13T02:13:09.018Z,99.92
2019-05-13T02:14:08.950Z,99.92
2019-05-13T02:15:09.000Z,99.82
2019-05-13T02:16:08.908Z,99.92
2019-05-13T02:17:10.019Z,99.82
2019-05-13T02:18:08.900Z,99.96
2019-05-13T02:19:08.920Z,99.96
2019-05-13T02:20:08.881Z,99.55
2019-05-13T02:21:08.971Z,99.96
2019-05-13T02:22:08.932Z,99.99
2019-05-13T02:23:08.858Z,99.96
2019-05-13T02:24:08.869Z,99.99
2019-05-13T02:25:08.833Z,99.99
2019-05-13T02:26:08.913Z,99.99
2019-05-13T02:27:08.873Z,99.99
2019-05-13T02:28:10.683Z,99.96
2019-05-13T02:29:08.815Z,99.80
2019-05-13T02:30:08.784Z,99.86
2019-05-13T02:31:12.465Z,99.38
2019-05-13T02:32:13.249Z,99.86
2019-05-13T02:33:08.730Z,99.70
2019-05-13T02:34:08.746Z,99.99
2019-05-13T02:35:08.707Z,99.86
2019-05-13T02:36:13.212Z,99.80
2019-05-13T02:37:08.681Z,99.99
2019-05-13T02:38:19.640Z,99.86
2019-05-13T02:39:12.711Z,99.76
2019-05-13T02:40:13.223Z,99.86
2019-05-13T02:41:08.635Z,99.65
2019-05-13T02:42:08.689Z,99.55
2019-05-13T02:43:08.603Z,99.99
2019-05-13T02:44:11.986Z,99.91
2019-05-13T02:45:12.371Z,99.59
2019-05-13T02:46:08.598Z,99.91
2019-05-13T02:47:08.633Z,99.91
2019-05-13T02:48:08.562Z,99.99
2019-05-13T02:49:08.557Z,99.99
2019-05-13T02:50:08.640Z,99.99
2019-05-13T02:51:08.545Z,99.99
2019-05-13T02:52:08.575Z,99.80
2019-05-13T02:53:08.505Z,99.64
2019-05-13T02:54:08.489Z,99.70
2019-05-13T02:55:08.475Z,99.91
2019-05-13T02:56:11.603Z,99.91
2019-05-13T02:57:08.447Z,99.99
2019-05-13T02:58:08.482Z,99.99
2019-05-13T02:59:08.437Z,99.99
2019-05-13T03:00:08.419Z,99.99
2019-05-13T03:01:09.471Z,99.99
2019-05-13T03:02:08.388Z,99.91
2019-05-13T03:03:08.419Z,99.99
2019-05-13T03:04:08.372Z,99.99
2019-05-13T03:05:08.359Z,99.99
2019-05-13T03:06:08.360Z,99.99
2019-05-13T03:07:08.397Z,99.99
2019-05-13T03:08:08.322Z,99.99
2019-05-13T03:09:12.412Z,99.99
2019-05-13T03:10:08.321Z,99.99
2019-05-13T03:11:08.313Z,99.99
2019-05-13T03:12:08.324Z,99.99
2019-05-13T03:13:08.264Z,99.99
2019-05-13T03:14:08.374Z,99.99
2019-05-13T03:15:08.247Z,99.99
2019-05-13T03:16:08.265Z,99.95
2019-05-13T03:17:08.277Z,99.99
2019-05-13T03:18:08.221Z,99.99
2019-05-13T03:19:08.315Z,99.58
2019-05-13T03:20:11.812Z,99.95
2019-05-13T03:21:12.444Z,99.99
2019-05-13T03:22:08.219Z,99.99
2019-05-13T03:23:08.158Z,99.99
2019-05-13T03:24:08.249Z,99.99
2019-05-13T03:25:08.137Z,99.99
2019-05-13T03:26:08.229Z,99.99
2019-05-13T03:27:08.112Z,99.95
2019-05-13T03:28:09.145Z,99.99
2019-05-13T03:29:08.098Z,99.99
2019-05-13T03:30:08.162Z,99.99
2019-05-13T03:31:08.220Z,99.99
2019-05-13T03:32:08.127Z,99.54
2019-05-13T03:33:11.448Z,99.99
2019-05-13T03:34:15.022Z,99.99
2019-05-13T03:35:09.123Z,99.90
2019-05-13T03:36:08.605Z,99.58
2019-05-13T03:37:08.388Z,99.99
2019-05-13T03:38:07.986Z,99.99
2019-05-13T03:39:14.527Z,99.99
2019-05-13T03:40:08.957Z,99.99
2019-05-13T03:41:08.055Z,99.99
2019-05-13T03:42:07.935Z,99.99
2019-05-13T03:43:07.931Z,99.99
2019-05-13T03:44:07.907Z,99.99
2019-05-13T03:45:07.978Z,99.95
2019-05-13T03:46:07.918Z,99.99
2019-05-13T03:47:12.279Z,99.99
2019-05-13T03:48:07.878Z,99.99
2019-05-13T03:49:07.959Z,99.99
2019-05-13T03:50:07.839Z,99.99
2019-05-13T03:51:08.900Z,99.99
2019-05-13T03:52:07.859Z,99.99
2019-05-13T03:53:07.930Z,99.99
2019-05-13T03:54:07.800Z,99.99
2019-05-13T03:55:07.851Z,99.99
2019-05-13T03:56:07.782Z,99.99
2019-05-13T03:57:07.931Z,99.99
2019-05-13T03:58:07.751Z,99.99
2019-05-13T03:59:07.753Z,99.99
2019-05-13T04:00:07.733Z,99.74
2019-05-13T04:01:07.757Z,99.99
2019-05-13T04:02:07.741Z,99.54
2019-05-13T04:03:07.796Z,99.99
2019-05-13T04:04:07.695Z,99.95
2019-05-13T04:05:07.675Z,99.95
2019-05-13T04:06:07.695Z,99.95
2019-05-13T04:07:07.676Z,99.99
2019-05-13T04:08:07.747Z,99.99
2019-05-13T04:09:22.273Z,99.74
2019-05-13T04:10:08.698Z,99.99
2019-05-13T04:11:07.608Z,99.99
2019-05-13T04:12:07.658Z,99.99
2019-05-13T04:13:07.579Z,99.99
2019-05-13T04:14:07.650Z,99.99
2019-05-13T04:15:07.572Z,99.59
2019-05-13T04:16:07.569Z,99.70
2019-05-13T04:17:07.554Z,99.80
2019-05-13T04:18:07.626Z,99.91
2019-05-13T04:19:07.521Z,99.99
2019-05-13T04:20:07.558Z,99.99
2019-05-13T04:21:07.512Z,99.99
2019-05-13T04:22:07.503Z,99.99
2019-05-13T04:23:07.565Z,99.99
2019-05-13T04:24:07.455Z,99.99
2019-05-13T04:25:07.494Z,99.86
2019-05-13T04:26:07.465Z,99.91
2019-05-13T04:27:07.435Z,99.18
2019-05-13T04:28:07.499Z,99.28
2019-05-13T04:29:07.396Z,99.59
2019-05-13T04:30:07.436Z,99.07
2019-05-13T04:31:07.377Z,98.86
2019-05-13T04:32:07.379Z,99.59
2019-05-13T04:33:08.458Z,99.59
2019-05-13T04:34:07.354Z,99.55
2019-05-13T04:35:07.369Z,99.59
2019-05-13T04:36:07.329Z,99.65
2019-05-13T04:37:07.320Z,98.82
2019-05-13T04:38:10.270Z,99.44
2019-05-13T04:39:08.280Z,99.07
2019-05-13T04:40:07.311Z,99.55
2019-05-13T04:41:07.272Z,98.82
2019-05-13T04:42:07.270Z,99.65
2019-05-13T04:43:07.241Z,99.65
2019-05-13T04:44:07.282Z,99.34
2019-05-13T04:45:07.223Z,99.51
2019-05-13T04:46:08.233Z,99.19
2019-05-13T04:47:07.212Z,99.51
2019-05-13T04:48:07.185Z,98.88
2019-05-13T04:49:07.225Z,98.88
2019-05-13T04:50:07.174Z,98.71
2019-05-13T04:51:07.268Z,98.35
2019-05-13T04:52:07.154Z,98.46
2019-05-13T04:53:07.135Z,98.46
2019-05-13T04:54:07.117Z,98.46
2019-05-13T04:55:07.127Z,98.98
2019-05-13T04:56:07.098Z,98.56
2019-05-13T04:57:07.227Z,98.14
2019-05-13T04:58:07.069Z,98.77
2019-05-13T04:59:08.128Z,98.56
2019-05-13T05:00:07.060Z,98.46
2019-05-13T05:01:08.665Z,98.98
2019-05-13T05:02:07.073Z,98.62
2019-05-13T05:03:07.076Z,98.21
2019-05-13T05:04:13.885Z,98.41
2019-05-13T05:05:08.000Z,98.72
2019-05-13T05:06:07.072Z,98.41
2019-05-13T05:07:06.962Z,98.52
2019-05-13T05:08:07.153Z,97.89
2019-05-13T05:09:06.965Z,98.10
2019-05-13T05:10:23.399Z,98.21
2019-05-13T05:11:07.934Z,98.21
2019-05-13T05:12:06.984Z,98.37
2019-05-13T05:13:06.935Z,98.26
2019-05-13T05:14:06.885Z,98.16
2019-05-13T05:15:06.881Z,98.05
2019-05-13T05:16:06.967Z,97.85
2019-05-13T05:17:06.856Z,97.89
2019-05-13T05:18:06.937Z,97.95
2019-05-13T05:19:06.838Z,98.05
2019-05-13T05:20:06.818Z,98.26
2019-05-13T05:21:06.897Z,98.05
2019-05-13T05:22:06.804Z,98.37
2019-05-13T05:23:06.889Z,97.78
2019-05-13T05:24:06.769Z,97.85
2019-05-13T05:25:06.759Z,97.32
2019-05-13T05:26:06.759Z,98.05
2019-05-13T05:27:06.812Z,97.74
2019-05-13T05:28:06.760Z,97.74
2019-05-13T05:29:06.741Z,97.53
2019-05-13T05:30:07.733Z,97.53
2019-05-13T05:31:06.702Z,97.32
2019-05-13T05:32:06.743Z,97.28
2019-05-13T05:33:06.692Z,97.59
2019-05-13T05:34:06.948Z,97.80
2019-05-13T05:35:06.665Z,96.97
2019-05-13T05:36:06.635Z,96.66
2019-05-13T05:37:06.675Z,96.86
2019-05-13T05:38:06.645Z,96.13
2019-05-13T05:39:06.725Z,96.55
2019-05-13T05:40:06.596Z,96.34
2019-05-13T05:41:06.587Z,96.50
2019-05-13T05:42:06.577Z,96.50
2019-05-13T05:43:06.637Z,96.61
2019-05-13T05:44:06.548Z,96.50
2019-05-13T05:45:06.628Z,95.98
2019-05-13T05:46:06.598Z,95.88
2019-05-13T05:47:06.509Z,96.30
2019-05-13T05:48:06.569Z,95.88
2019-05-13T05:49:06.499Z,96.09
2019-05-13T05:50:06.569Z,96.36
2019-05-13T05:51:06.482Z,95.98
2019-05-13T05:52:06.503Z,95.21
2019-05-13T05:53:06.472Z,95.31
2019-05-13T05:54:06.541Z,95.42
2019-05-13T05:55:06.423Z,95.31
2019-05-13T05:56:06.474Z,95.52
2019-05-13T05:57:06.413Z,95.27
2019-05-13T05:58:06.465Z,95.58
2019-05-13T05:59:06.381Z,95.12
2019-05-13T06:00:06.459Z,95.89
2019-05-13T06:01:06.370Z,93.10
2019-05-13T06:02:06.348Z,88.86
2019-05-13T06:03:07.377Z,80.97
2019-05-13T06:04:06.348Z,74.26
2019-05-13T06:05:06.388Z,70.61
2019-05-13T06:06:06.296Z,69.42
2019-05-13T06:07:06.288Z,63.70
2019-05-13T06:08:06.287Z,58.22
2019-05-13T06:09:06.308Z,56.72
2019-05-13T06:10:06.256Z,54.00
2019-05-13T06:11:06.290Z,52.33
2019-05-13T06:12:06.240Z,51.43
2019-05-13T06:13:06.238Z,48.05
2019-05-13T06:14:06.241Z,45.98
2019-05-13T06:15:06.200Z,46.47
2019-05-13T06:16:06.242Z,45.70
2019-05-13T06:17:06.173Z,43.04
2019-05-13T06:18:06.165Z,40.77
2019-05-13T06:19:06.163Z,40.57
2019-05-13T06:20:06.226Z,39.34
2019-05-13T06:21:06.126Z,37.98
2019-05-13T06:22:06.145Z,36.85
2019-05-13T06:23:06.215Z,36.55
2019-05-13T06:24:06.117Z,37.18
2019-05-13T06:25:07.167Z,37.75
2019-05-13T06:26:06.083Z,36.60
2019-05-13T06:27:06.087Z,35.48
2019-05-13T06:28:06.048Z,34.76
2019-05-13T06:29:06.178Z,34.33
2019-05-13T06:30:06.029Z,33.40
2019-05-13T06:31:06.062Z,33.20
2019-05-13T06:32:18.237Z,33.00
2019-05-13T06:33:06.996Z,33.00
2019-05-13T06:34:06.010Z,31.89
2019-05-13T06:35:07.053Z,31.46
2019-05-13T06:36:05.961Z,31.53
2019-05-13T06:37:06.061Z,30.73
2019-05-13T06:38:05.943Z,30.63
2019-05-13T06:39:05.957Z,30.42
2019-05-13T06:40:05.915Z,28.62
2019-05-13T06:41:10.846Z,30.29
2019-05-13T06:42:06.900Z,28.22
2019-05-13T06:43:05.975Z,28.70
2019-05-13T06:44:05.987Z,28.89
2019-05-13T06:45:05.855Z,28.99
2019-05-13T06:46:05.876Z,27.98
2019-05-13T06:47:05.837Z,27.57
2019-05-13T06:48:05.908Z,28.63
2019-05-13T06:49:05.838Z,27.92
2019-05-13T06:50:05.810Z,24.46
2019-05-13T06:51:05.810Z,26.56
2019-05-13T06:52:05.781Z,28.39
2019-05-13T06:53:08.454Z,27.81
2019-05-13T06:54:05.772Z,28.18
2019-05-13T06:55:05.741Z,26.55
2019-05-13T06:56:05.732Z,25.93
2019-05-13T06:57:06.330Z,25.43
2019-05-13T06:58:05.703Z,25.21
2019-05-13T06:59:05.803Z,25.79
2019-05-13T07:00:05.694Z,24.32
2019-05-13T07:01:05.704Z,25.90
2019-05-13T07:02:05.667Z,26.08
2019-05-13T07:03:05.739Z,26.08
2019-05-13T07:04:05.647Z,25.68
2019-05-13T07:05:07.656Z,25.81
2019-05-13T07:06:05.599Z,23.24
2019-05-13T07:07:13.066Z,24.15
2019-05-13T07:08:06.609Z,24.13
2019-05-13T07:09:05.639Z,23.43
2019-05-13T07:10:05.591Z,24.01
2019-05-13T07:11:17.623Z,24.92
2019-05-13T07:12:06.551Z,24.21
2019-05-13T07:13:05.611Z,24.10
2019-05-13T07:14:05.550Z,24.41
2019-05-13T07:15:05.602Z,23.83
2019-05-13T07:16:05.516Z,24.54
2019-05-13T07:17:05.505Z,25.95
2019-05-13T07:18:05.554Z,25.43
2019-05-13T07:19:05.475Z,26.49
2019-05-13T07:20:05.535Z,25.92
2019-05-13T07:21:05.436Z,26.63
2019-05-13T07:22:05.448Z,26.65
2019-05-13T07:23:05.420Z,29.22
2019-05-13T07:24:05.469Z,27.80
2019-05-13T07:25:05.428Z,27.98
2019-05-13T07:26:05.509Z,25.90
2019-05-13T07:27:05.381Z,27.11
2019-05-13T07:28:05.373Z,26.78
2019-05-13T07:29:06.920Z,27.89
2019-05-13T07:30:05.362Z,27.54
2019-05-13T07:31:06.362Z,25.89
2019-05-13T07:32:05.325Z,26.09
2019-05-13T07:33:05.328Z,24.89
2019-05-13T07:34:05.314Z,25.99
2019-05-13T07:35:05.363Z,25.49
2019-05-13T07:36:05.305Z,25.07
2019-05-13T07:37:05.345Z,24.04
2019-05-13T07:38:05.285Z,24.05
2019-05-13T07:39:05.286Z,25.77
2019-05-13T07:40:05.258Z,27.20
2019-05-13T07:41:05.324Z,26.59
2019-05-13T07:42:06.067Z,25.85
2019-05-13T07:43:05.260Z,27.31
2019-05-13T07:44:05.190Z,25.91
2019-05-13T07:45:06.262Z,25.82
2019-05-13T07:46:05.171Z,25.15
2019-05-13T07:47:05.232Z,23.96
2019-05-13T07:48:19.405Z,25.15
2019-05-13T07:49:06.134Z,24.15
2019-05-13T07:50:05.185Z,23.90
2019-05-13T07:51:05.212Z,23.00
2019-05-13T07:52:05.175Z,22.34
2019-05-13T07:53:05.086Z,23.41
2019-05-13T07:54:05.105Z,23.17
2019-05-13T07:55:05.087Z,21.47
2019-05-13T07:56:05.146Z,22.67
2019-05-13T07:57:05.051Z,21.79
2019-05-13T07:58:05.090Z,24.27
2019-05-13T07:59:05.029Z,24.07
2019-05-13T08:00:05.049Z,25.20
2019-05-13T08:01:05.037Z,25.27
2019-05-13T08:02:06.071Z,25.49
2019-05-13T08:03:04.982Z,23.48
2019-05-13T08:04:04.981Z,23.54
2019-05-13T08:05:05.003Z,23.85
2019-05-13T08:06:05.030Z,24.26
2019-05-13T08:07:04.929Z,24.29
2019-05-13T08:08:04.964Z,25.19
2019-05-13T08:09:04.916Z,26.08
2019-05-13T08:10:04.996Z,24.03
2019-05-13T08:11:04.906Z,23.63
2019-05-13T08:12:10.678Z,23.94
2019-05-13T08:13:05.868Z,24.16
2019-05-13T08:14:04.976Z,24.87
2019-05-13T08:15:04.860Z,25.92
2019-05-13T08:16:04.842Z,24.83
2019-05-13T08:17:04.830Z,24.13
2019-05-13T08:18:04.841Z,26.29
2019-05-13T08:19:04.811Z,22.88
2019-05-13T08:20:05.903Z,23.14
2019-05-13T08:21:04.804Z,22.91
2019-05-13T08:22:04.789Z,21.03
2019-05-13T08:23:04.784Z,20.33
2019-05-13T08:24:04.744Z,21.56
2019-05-13T08:25:05.847Z,21.57
2019-05-13T08:26:04.758Z,23.11
2019-05-13T08:27:04.723Z,24.07
2019-05-13T08:28:04.709Z,24.32
2019-05-13T08:29:05.984Z,22.80
2019-05-13T08:30:04.680Z,23.18
2019-05-13T08:31:04.779Z,20.78
2019-05-13T08:32:04.650Z,21.44
2019-05-13T08:33:04.770Z,22.67
2019-05-13T08:34:04.648Z,23.99
2019-05-13T08:35:08.838Z,24.85
2019-05-13T08:36:04.642Z,24.79
2019-05-13T08:37:04.633Z,25.23
2019-05-13T08:38:04.599Z,23.39
2019-05-13T08:39:04.703Z,25.44
2019-05-13T08:40:04.585Z,29.43
2019-05-13T08:41:04.656Z,29.60
2019-05-13T08:42:15.134Z,28.81
2019-05-13T08:43:06.879Z,28.55
2019-05-13T08:44:04.527Z,27.39
2019-05-13T08:45:04.578Z,27.85
2019-05-13T08:46:04.519Z,27.41
2019-05-13T08:47:04.532Z,26.10
2019-05-13T08:48:04.480Z,26.03
2019-05-13T08:49:04.501Z,24.57
2019-05-13T08:50:04.732Z,22.53
2019-05-13T08:51:04.471Z,23.28
2019-05-13T08:52:04.452Z,20.83
2019-05-13T08:53:04.423Z,21.64
2019-05-13T08:54:04.413Z,27.26
2019-05-13T08:55:04.398Z,31.33
2019-05-13T08:56:04.476Z,32.65
2019-05-13T08:57:04.386Z,28.57
2019-05-13T08:58:04.485Z,25.93
2019-05-13T08:59:04.348Z,26.35
2019-05-13T09:00:05.603Z,24.48
2019-05-13T09:01:04.428Z,23.75
2019-05-13T09:02:04.319Z,21.85
2019-05-13T09:03:06.330Z,21.86
2019-05-13T09:04:04.291Z,21.75
2019-05-13T09:05:04.292Z,22.77
2019-05-13T09:06:04.302Z,20.73
2019-05-13T09:07:04.288Z,19.06
2019-05-13T09:08:04.265Z,18.79
2019-05-13T09:09:04.312Z,19.27
2019-05-13T09:10:04.224Z,19.42
2019-05-13T09:11:04.267Z,21.02
2019-05-13T09:12:04.225Z,20.64
2019-05-13T09:13:04.195Z,20.73
2019-05-13T09:14:04.266Z,20.64
2019-05-13T09:15:04.180Z,20.84
2019-05-13T09:16:04.178Z,21.46
2019-05-13T09:17:04.168Z,21.66
2019-05-13T09:18:04.239Z,23.77
2019-05-13T09:19:04.232Z,23.68
2019-05-13T09:20:05.192Z,21.85
2019-05-13T09:21:04.101Z,21.93
2019-05-13T09:22:04.162Z,20.67
2019-05-13T09:23:04.082Z,19.64
2019-05-13T09:24:20.376Z,18.86
2019-05-13T09:25:05.063Z,19.23
2019-05-13T09:26:04.064Z,18.77
2019-05-13T09:27:05.114Z,19.12
2019-05-13T09:28:04.025Z,23.99
2019-05-13T09:29:04.089Z,23.01
2019-05-13T09:30:04.018Z,24.15
2019-05-13T09:31:04.018Z,23.15
2019-05-13T09:32:04.291Z,21.20
2019-05-13T09:33:04.059Z,21.00
2019-05-13T09:34:03.960Z,20.92
2019-05-13T09:35:03.990Z,20.91
2019-05-13T09:36:03.957Z,21.62
2019-05-13T09:37:03.983Z,21.83
2019-05-13T09:38:05.021Z,23.08
2019-05-13T09:39:03.902Z,24.40
2019-05-13T09:40:03.942Z,24.90
2019-05-13T09:41:03.883Z,28.12
2019-05-13T09:42:03.914Z,27.52
2019-05-13T09:43:03.948Z,26.54
2019-05-13T09:44:03.845Z,23.60
2019-05-13T09:45:03.877Z,23.48
2019-05-13T09:46:03.841Z,22.77
2019-05-13T09:47:03.859Z,22.05
2019-05-13T09:48:03.802Z,22.77
2019-05-13T09:49:15.710Z,23.93
2019-05-13T09:50:04.820Z,22.02
2019-05-13T09:51:03.780Z,20.90
2019-05-13T09:52:03.780Z,21.92
2019-05-13T09:53:11.517Z,23.88
2019-05-13T09:54:03.751Z,27.34
2019-05-13T09:55:21.135Z,26.70
2019-05-13T09:56:04.713Z,26.93
2019-05-13T09:57:03.734Z,27.64
2019-05-13T09:58:03.705Z,28.15
2019-05-13T09:59:03.685Z,28.62
2019-05-13T10:00:03.667Z,28.95
2019-05-13T10:01:03.765Z,30.87
2019-05-13T10:02:03.667Z,29.59
2019-05-13T10:03:03.687Z,30.47
2019-05-13T10:04:03.672Z,33.14
2019-05-13T10:05:03.628Z,36.91
2019-05-13T10:06:03.698Z,35.85
2019-05-13T10:07:03.610Z,38.30
2019-05-13T10:08:03.640Z,37.71
2019-05-13T10:09:03.590Z,39.84
2019-05-13T10:10:03.561Z,37.02
2019-05-13T10:11:03.556Z,36.51
2019-05-13T10:12:03.718Z,36.22
2019-05-13T10:13:12.011Z,37.26
2019-05-13T10:14:04.514Z,37.07
2019-05-13T10:15:03.838Z,37.08
2019-05-13T10:16:03.496Z,35.26
2019-05-13T10:17:06.514Z,33.63
2019-05-13T10:18:03.476Z,33.04
2019-05-13T10:19:03.498Z,33.87
2019-05-13T10:20:03.448Z,34.48
2019-05-13T10:21:03.438Z,33.76
2019-05-13T10:22:03.449Z,34.27
2019-05-13T10:23:03.460Z,33.95
2019-05-13T10:24:03.401Z,32.04
2019-05-13T10:25:03.501Z,32.04
2019-05-13T10:26:03.667Z,30.51
2019-05-13T10:27:03.394Z,31.93
2019-05-13T10:28:03.404Z,33.87
2019-05-13T10:29:03.363Z,33.65
2019-05-13T10:30:03.433Z,32.04
2019-05-13T10:31:03.338Z,30.63
2019-05-13T10:32:03.785Z,32.05
2019-05-13T10:33:03.325Z,31.05
2019-05-13T10:34:03.414Z,31.88
2019-05-13T10:35:03.688Z,31.88
2019-05-13T10:36:03.943Z,33.39
2019-05-13T10:37:03.287Z,33.80
2019-05-13T10:38:04.384Z,33.08
2019-05-13T10:39:03.362Z,34.92
2019-05-13T10:40:03.242Z,35.61
2019-05-13T10:41:03.865Z,32.66
2019-05-13T10:42:03.864Z,33.37
2019-05-13T10:43:03.202Z,33.78
2019-05-13T10:44:03.312Z,32.78
2019-05-13T10:45:03.282Z,31.86
2019-05-13T10:46:03.211Z,28.82
2019-05-13T10:47:05.274Z,30.76
2019-05-13T10:48:03.156Z,31.98
2019-05-13T10:49:03.126Z,32.57
2019-05-13T10:50:03.231Z,33.08
2019-05-13T10:51:03.117Z,32.98
2019-05-13T10:52:03.454Z,30.13
2019-05-13T10:53:03.091Z,32.07
2019-05-13T10:54:03.081Z,31.15
2019-05-13T10:55:03.059Z,31.25
2019-05-13T10:56:05.160Z,34.71
2019-05-13T10:57:03.940Z,31.66
2019-05-13T10:58:03.051Z,31.76
2019-05-13T10:59:03.348Z,33.20
2019-05-13T11:00:03.484Z,35.44
2019-05-13T11:01:03.213Z,35.83
2019-05-13T11:02:03.064Z,35.93
2019-05-13T11:03:02.969Z,35.03
2019-05-13T11:04:03.066Z,35.03
2019-05-13T11:05:03.413Z,34.71
2019-05-13T11:06:03.186Z,35.75
2019-05-13T11:07:04.026Z,36.56
2019-05-13T11:08:02.928Z,34.83
2019-05-13T11:09:03.002Z,34.93
2019-05-13T11:10:02.905Z,35.34
2019-05-13T11:11:02.942Z,36.66
2019-05-13T11:12:02.892Z,36.44
2019-05-13T11:13:06.024Z,36.75
2019-05-13T11:14:11.040Z,36.75
2019-05-13T11:15:03.853Z,36.46
2019-05-13T11:16:02.824Z,35.44
2019-05-13T11:17:02.813Z,36.25
2019-05-13T11:18:03.166Z,37.26
2019-05-13T11:19:03.094Z,35.32
2019-05-13T11:20:03.688Z,36.24
2019-05-13T11:21:02.765Z,36.25
2019-05-13T11:22:03.097Z,36.25
2019-05-13T11:23:02.816Z,35.32
2019-05-13T11:24:03.578Z,33.91
2019-05-13T11:25:02.756Z,36.56
2019-05-13T11:27:03.724Z,38.07
2019-05-13T11:28:02.730Z,38.15
2019-05-13T11:29:02.925Z,37.26
2019-05-13T11:30:06.420Z,37.66
2019-05-13T11:31:03.429Z,38.48
2019-05-13T11:32:03.052Z,38.87
2019-05-13T11:33:02.663Z,38.46
2019-05-13T11:34:02.704Z,37.63
2019-05-13T11:35:02.614Z,37.65
2019-05-13T11:36:03.601Z,39.78
2019-05-13T11:37:03.595Z,38.06
2019-05-13T11:38:02.596Z,38.76
2019-05-13T11:39:04.607Z,41.70
2019-05-13T11:40:02.951Z,37.53
2019-05-13T11:41:02.788Z,39.85
2019-05-13T11:42:02.649Z,37.70
2019-05-13T11:43:02.549Z,36.69
2019-05-13T11:44:12.685Z,36.08
2019-05-13T11:45:03.501Z,36.41
2019-05-13T11:46:02.642Z,39.15
2019-05-13T11:47:03.088Z,36.02
2019-05-13T11:48:02.602Z,35.54
2019-05-13T11:49:02.758Z,37.36
2019-05-13T11:50:03.524Z,36.04
2019-05-13T11:51:04.103Z,37.46
2019-05-13T11:52:03.456Z,36.04
2019-05-13T11:53:06.007Z,36.53
2019-05-13T11:54:03.417Z,36.12
2019-05-13T11:55:03.005Z,35.92
2019-05-13T11:56:03.644Z,38.24
2019-05-13T11:57:06.210Z,36.51
2019-05-13T11:58:03.089Z,34.29
2019-05-13T11:59:04.361Z,34.80
2019-05-13T12:00:02.845Z,36.43
2019-05-13T12:01:02.989Z,36.82
2019-05-13T12:02:04.378Z,36.10
2019-05-13T12:03:04.241Z,34.99
2019-05-13T12:04:02.948Z,36.31
2019-05-13T12:05:03.756Z,36.21
2019-05-13T12:06:03.352Z,33.95
2019-05-13T12:07:03.547Z,33.65
2019-05-13T12:08:02.315Z,34.66
2019-05-13T12:09:03.087Z,32.43
2019-05-13T12:10:03.277Z,33.04
2019-05-13T12:11:04.075Z,35.70
2019-05-13T12:12:03.214Z,36.39
2019-05-13T12:13:02.177Z,33.75
2019-05-13T12:14:02.290Z,36.31
2019-05-13T12:15:26.543Z,38.12
2019-05-13T12:16:03.863Z,36.10
2019-05-13T12:17:02.435Z,36.32
2019-05-13T12:18:02.949Z,36.02
2019-05-13T12:19:03.358Z,34.80
2019-05-13T12:20:03.005Z,36.32
2019-05-13T12:21:03.317Z,35.53
2019-05-13T12:22:02.989Z,33.80
2019-05-13T12:23:03.401Z,37.85
2019-05-13T12:24:09.410Z,36.53
2019-05-13T12:25:03.055Z,35.51
2019-05-13T12:26:04.027Z,34.90
2019-05-13T12:27:03.519Z,33.58
2019-05-13T12:28:03.343Z,32.78
2019-05-13T12:29:02.990Z,33.29
2019-05-13T12:30:03.002Z,33.18
2019-05-13T12:31:03.195Z,33.49
2019-05-13T12:32:03.300Z,35.32
2019-05-13T12:33:03.144Z,34.10
2019-05-13T12:34:03.528Z,34.61
2019-05-13T12:35:03.619Z,32.17
2019-05-13T12:36:02.348Z,31.96
2019-05-13T12:37:03.427Z,32.35
2019-05-13T12:38:01.916Z,31.56
2019-05-13T12:39:01.913Z,33.58
2019-05-13T12:40:03.235Z,33.37
2019-05-13T12:41:04.999Z,34.90
2019-05-13T12:42:03.382Z,32.24
2019-05-13T12:43:02.257Z,31.34
2019-05-13T12:44:02.053Z,32.05
2019-05-13T12:45:09.723Z,32.66
2019-05-13T12:46:02.828Z,33.58
2019-05-13T12:47:03.268Z,36.82
2019-05-13T12:48:03.290Z,33.97
2019-05-13T12:49:03.888Z,32.14
2019-05-13T12:50:03.191Z,32.34
2019-05-13T12:51:03.044Z,31.93
2019-05-13T12:52:04.660Z,31.93
2019-05-13T12:53:02.732Z,34.58